createdAt,value
2019-01-18T00:00:47.805Z,3.60
2019-01-18T00:03:17.530Z,3.60
2019-01-18T00:05:48.285Z,3.50
2019-01-18T00:08:19.086Z,3.50
2019-01-18T00:10:48.800Z,3.60
2019-01-18T00:13:20.082Z,3.50
2019-01-18T00:15:50.845Z,3.60
2019-01-18T00:18:21.717Z,3.50
2019-01-18T00:20:52.479Z,3.50
2019-01-18T00:23:23.242Z,3.60
2019-01-18T00:25:52.965Z,3.50
2019-01-18T00:28:24.438Z,3.40
2019-01-18T00:30:54.206Z,3.50
2019-01-18T00:33:25.077Z,3.60
2019-01-18T00:35:55.845Z,3.50
2019-01-18T00:38:26.685Z,3.40
2019-01-18T00:40:57.402Z,3.50
2019-01-18T00:43:27.099Z,3.50
2019-01-18T00:45:56.873Z,3.40
2019-01-18T00:48:26.603Z,3.50
2019-01-18T00:50:56.313Z,3.40
2019-01-18T00:53:27.119Z,3.40
2019-01-18T00:55:57.886Z,3.50
2019-01-18T00:58:28.638Z,3.40
2019-01-18T01:00:58.314Z,3.40
2019-01-18T01:03:28.034Z,3.40
2019-01-18T01:05:58.838Z,3.40
2019-01-18T01:08:29.522Z,3.50
2019-01-18T01:11:00.286Z,3.50
2019-01-18T01:13:31.086Z,3.50
2019-01-18T01:16:01.882Z,3.40
2019-01-18T01:18:32.637Z,3.50
2019-01-18T01:21:03.438Z,3.40
2019-01-18T01:23:34.327Z,3.40
2019-01-18T01:26:05.406Z,3.50
2019-01-18T01:28:36.765Z,3.40
2019-01-18T01:31:06.557Z,3.30
2019-01-18T01:33:37.359Z,3.30
2019-01-18T01:36:08.761Z,3.20
2019-01-18T01:38:38.598Z,3.20
2019-01-18T01:41:09.360Z,3.30
2019-01-18T01:43:39.555Z,3.30
2019-01-18T01:46:10.376Z,3.20
2019-01-18T01:48:41.205Z,3.20
2019-01-18T01:51:11.966Z,3.20
2019-01-18T01:53:42.722Z,3.10
2019-01-18T01:56:12.394Z,3.20
2019-01-18T01:58:43.202Z,3.20
2019-01-18T02:01:13.962Z,3.30
2019-01-18T02:03:44.678Z,3.30
2019-01-18T02:06:15.402Z,3.20
2019-01-18T02:08:45.077Z,3.30
2019-01-18T02:11:15.837Z,3.30
2019-01-18T02:13:46.681Z,3.30
2019-01-18T02:16:17.446Z,3.30
2019-01-18T02:18:48.282Z,3.20
2019-01-18T02:21:17.993Z,3.30
2019-01-18T02:23:47.646Z,3.30
2019-01-18T02:26:18.399Z,3.30
2019-01-18T02:28:48.081Z,3.30
2019-01-18T02:31:18.760Z,3.30
2019-01-18T02:33:49.570Z,3.30
2019-01-18T02:36:19.415Z,3.30
2019-01-18T02:38:50.846Z,3.30
2019-01-18T02:41:20.518Z,3.30
2019-01-18T02:43:50.273Z,3.30
2019-01-18T02:46:19.993Z,3.30
2019-01-18T02:48:49.676Z,3.30
2019-01-18T02:51:20.473Z,3.20
2019-01-18T02:53:50.199Z,3.20
2019-01-18T02:56:20.919Z,3.10
2019-01-18T02:58:50.597Z,3.10
2019-01-18T03:01:20.361Z,3.00
2019-01-18T03:03:51.158Z,3.10
2019-01-18T03:06:21.888Z,3.00
2019-01-18T03:08:52.757Z,3.10
2019-01-18T03:11:23.522Z,3.10
2019-01-18T03:13:53.198Z,3.10
2019-01-18T03:16:23.997Z,3.10
2019-01-18T03:18:53.753Z,3.10
2019-01-18T03:21:23.433Z,3.30
2019-01-18T03:23:54.636Z,3.20
2019-01-18T03:26:25.403Z,3.10
2019-01-18T03:28:55.565Z,3.10
2019-01-18T03:31:26.367Z,3.10
2019-01-18T03:33:57.246Z,3.10
2019-01-18T03:36:28.089Z,3.10
2019-01-18T03:38:57.801Z,3.00
2019-01-18T03:41:29.398Z,3.00
2019-01-18T03:43:59.090Z,3.00
2019-01-18T03:46:28.875Z,3.00
2019-01-18T03:48:59.644Z,3.00
2019-01-18T03:51:30.362Z,3.10
2019-01-18T03:54:01.087Z,3.10
2019-01-18T03:56:31.961Z,3.10
2019-01-18T03:59:02.842Z,3.00
2019-01-18T04:01:33.558Z,3.10
2019-01-18T04:04:04.923Z,3.10
2019-01-18T04:06:35.765Z,3.10
2019-01-18T04:09:07.199Z,3.10
2019-01-18T04:11:37.927Z,3.10
2019-01-18T04:14:07.719Z,3.10
2019-01-18T04:16:38.833Z,3.20
2019-01-18T04:19:09.569Z,3.10
2019-01-18T04:21:40.921Z,3.10
2019-01-18T04:24:11.678Z,3.10
2019-01-18T04:26:42.446Z,3.00
2019-01-18T04:29:13.274Z,3.00
2019-01-18T04:31:44.114Z,3.00
2019-01-18T04:34:13.794Z,3.00
2019-01-18T04:36:44.598Z,2.90
2019-01-18T04:39:14.320Z,2.90
2019-01-18T04:41:45.128Z,2.90
2019-01-18T04:44:14.914Z,2.90
2019-01-18T04:46:46.401Z,2.90
2019-01-18T04:49:16.114Z,2.90
2019-01-18T04:51:45.765Z,2.90
2019-01-18T04:54:17.195Z,2.80
2019-01-18T04:56:48.445Z,2.80
2019-01-18T04:59:19.155Z,2.80
2019-01-18T05:01:49.887Z,2.80
2019-01-18T05:04:19.914Z,2.80
2019-01-18T05:06:50.642Z,2.70
2019-01-18T05:09:21.395Z,2.70
2019-01-18T05:11:52.075Z,2.60
2019-01-18T05:14:22.843Z,2.60
2019-01-18T05:16:53.563Z,2.60
2019-01-18T05:19:24.322Z,2.60
2019-01-18T05:21:55.594Z,2.60
2019-01-18T05:24:25.322Z,2.60
2019-01-18T05:26:54.970Z,2.50
2019-01-18T05:29:25.757Z,2.50
2019-01-18T05:31:55.442Z,2.50
2019-01-18T05:34:26.179Z,2.50
2019-01-18T05:36:57.562Z,2.40
2019-01-18T05:39:28.314Z,2.40
2019-01-18T05:41:59.039Z,2.30
2019-01-18T05:44:28.718Z,2.30
2019-01-18T05:46:59.609Z,2.30
2019-01-18T05:49:31.085Z,2.20
2019-01-18T05:52:01.874Z,2.20
2019-01-18T05:54:33.286Z,2.10
2019-01-18T05:57:04.116Z,2.10
2019-01-18T05:59:35.523Z,2.10
2019-01-18T06:02:06.281Z,2.10
2019-01-18T06:04:37.043Z,2.10
2019-01-18T06:07:07.802Z,2.00
2019-01-18T06:09:38.526Z,2.00
2019-01-18T06:12:09.282Z,2.00
2019-01-18T06:14:40.115Z,2.00
2019-01-18T06:17:10.877Z,1.90
2019-01-18T06:19:43.803Z,1.90
2019-01-18T06:22:14.241Z,1.90
2019-01-18T06:24:45.087Z,1.80
2019-01-18T06:27:16.563Z,1.80
2019-01-18T06:29:47.479Z,1.70
2019-01-18T06:32:18.205Z,1.80
2019-01-18T06:34:48.993Z,1.80
2019-01-18T06:37:19.802Z,1.70
2019-01-18T06:39:50.638Z,1.70
2019-01-18T06:42:21.401Z,1.70
2019-01-18T06:44:52.166Z,1.70
2019-01-18T06:47:22.971Z,1.70
2019-01-18T06:49:53.882Z,1.70
2019-01-18T06:52:24.606Z,1.70
2019-01-18T06:54:57.568Z,1.70
2019-01-18T06:57:28.433Z,1.70
2019-01-18T06:59:57.603Z,1.60
2019-01-18T07:02:28.365Z,1.60
2019-01-18T07:04:59.154Z,1.60
2019-01-18T07:07:29.998Z,1.60
2019-01-18T07:10:00.728Z,1.60
2019-01-18T07:12:30.562Z,1.70
2019-01-18T07:15:01.415Z,1.60
2019-01-18T07:17:31.123Z,1.60
2019-01-18T07:20:01.871Z,1.60
2019-01-18T07:22:32.643Z,1.60
2019-01-18T07:25:03.480Z,1.60
2019-01-18T07:27:33.124Z,1.60
2019-01-18T07:30:03.914Z,1.60
2019-01-18T07:32:35.277Z,1.60
2019-01-18T07:35:06.846Z,1.50
2019-01-18T07:37:37.602Z,1.50
2019-01-18T07:40:12.281Z,1.50
2019-01-18T07:42:43.176Z,1.50
2019-01-18T07:45:21.327Z,1.50
2019-01-18T07:47:51.081Z,1.50
2019-01-18T07:50:21.888Z,1.50
2019-01-18T07:52:53.287Z,1.50
2019-01-18T07:55:22.962Z,1.50
2019-01-18T07:57:53.766Z,1.40
2019-01-18T08:00:30.043Z,1.40
2019-01-18T08:03:00.901Z,1.40
2019-01-18T08:05:32.118Z,1.30
2019-01-18T08:08:03.181Z,1.30
2019-01-18T08:10:33.981Z,1.30
2019-01-18T08:13:04.753Z,1.40
2019-01-18T08:15:35.525Z,1.30
2019-01-18T08:18:06.357Z,1.30
2019-01-18T08:20:37.126Z,1.30
2019-01-18T08:23:07.885Z,1.30
2019-01-18T08:25:37.606Z,1.30
2019-01-18T08:28:08.438Z,1.40
2019-01-18T08:30:39.155Z,1.30
2019-01-18T08:33:09.878Z,1.30
2019-01-18T08:35:40.685Z,1.30
2019-01-18T08:38:12.008Z,1.30
2019-01-18T08:40:42.765Z,1.40
2019-01-18T08:43:13.566Z,1.30
2019-01-18T08:45:47.083Z,1.40
2019-01-18T08:48:17.961Z,1.40
2019-01-18T08:50:49.327Z,1.40
2019-01-18T08:53:20.198Z,1.40
2019-01-18T08:55:50.998Z,1.40
2019-01-18T08:58:21.886Z,1.50
2019-01-18T09:00:52.649Z,1.60
2019-01-18T09:03:23.486Z,1.50
2019-01-18T09:05:54.233Z,1.50
2019-01-18T09:08:25.087Z,1.40
2019-01-18T09:10:55.795Z,1.40
2019-01-18T09:13:26.525Z,1.40
2019-01-18T09:15:57.278Z,1.50
2019-01-18T09:18:28.051Z,1.50
2019-01-18T09:20:58.900Z,1.50
2019-01-18T09:23:29.714Z,1.40
2019-01-18T09:26:00.527Z,1.40
2019-01-18T09:28:31.407Z,1.40
2019-01-18T09:31:02.318Z,1.40
2019-01-18T09:33:33.163Z,1.50
2019-01-18T09:36:03.085Z,1.40
2019-01-18T09:38:33.926Z,1.40
2019-01-18T09:41:04.763Z,1.40
2019-01-18T09:43:35.521Z,1.50
2019-01-18T09:46:06.362Z,1.50
2019-01-18T09:48:37.889Z,1.40
2019-01-18T09:51:08.759Z,1.50
2019-01-18T09:53:39.526Z,1.50
2019-01-18T09:56:10.384Z,1.50
2019-01-18T09:58:41.761Z,1.50
2019-01-18T10:01:12.961Z,1.50
2019-01-18T10:03:43.761Z,1.50
2019-01-18T10:06:16.606Z,1.40
2019-01-18T10:08:47.483Z,1.50
2019-01-18T10:11:18.397Z,1.50
2019-01-18T10:13:49.165Z,1.50
2019-01-18T10:16:19.994Z,1.50
2019-01-18T10:18:50.725Z,1.40
2019-01-18T10:21:21.442Z,1.40
2019-01-18T10:23:52.282Z,1.40
2019-01-18T10:26:21.922Z,1.40
2019-01-18T10:28:52.725Z,1.40
2019-01-18T10:31:22.394Z,1.40
2019-01-18T10:33:52.201Z,1.30
2019-01-18T10:36:23.009Z,1.30
2019-01-18T10:38:53.764Z,1.30
2019-01-18T10:41:24.595Z,1.30
2019-01-18T10:43:54.321Z,1.30
2019-01-18T10:46:25.207Z,1.30
2019-01-18T10:48:59.674Z,1.30
2019-01-18T10:51:30.527Z,1.30
2019-01-18T10:54:01.405Z,1.30
2019-01-18T10:56:31.754Z,1.30
2019-01-18T10:59:01.571Z,1.20
2019-01-18T11:01:33.998Z,1.30
2019-01-18T11:04:04.909Z,1.30
2019-01-18T11:06:35.587Z,1.30
2019-01-18T11:09:11.453Z,1.30
2019-01-18T11:11:42.210Z,1.30
2019-01-18T11:14:15.180Z,1.30
2019-01-18T11:16:47.001Z,1.30
2019-01-18T11:19:16.766Z,1.30
2019-01-18T11:21:46.755Z,1.20
2019-01-18T11:24:17.562Z,1.20
2019-01-18T11:26:48.275Z,1.20
2019-01-18T11:29:19.003Z,1.20
2019-01-18T11:31:49.810Z,1.20
2019-01-18T11:34:20.607Z,1.20
2019-01-18T11:36:51.846Z,1.20
2019-01-18T11:39:23.176Z,1.20
2019-01-18T11:41:55.555Z,1.20
2019-01-18T11:44:29.059Z,1.20
2019-01-18T11:46:59.841Z,1.30
2019-01-18T11:49:30.686Z,1.30
2019-01-18T11:52:01.481Z,1.30
2019-01-18T11:54:31.243Z,1.30
2019-01-18T11:57:02.042Z,1.30
2019-01-18T11:59:32.915Z,1.40
2019-01-18T12:02:03.686Z,1.40
2019-01-18T12:04:36.764Z,1.50
2019-01-18T12:07:07.524Z,1.60
2019-01-18T12:09:44.454Z,1.60
2019-01-18T12:12:15.234Z,1.60
2019-01-18T12:14:46.518Z,1.50
2019-01-18T12:17:17.243Z,1.50
2019-01-18T12:19:48.124Z,1.40
2019-01-18T12:22:18.998Z,1.40
2019-01-18T12:24:49.763Z,1.40
2019-01-18T12:27:22.418Z,1.40
2019-01-18T12:29:51.761Z,1.40
2019-01-18T12:32:28.618Z,1.40
2019-01-18T12:34:55.046Z,1.50
2019-01-18T12:37:25.838Z,1.70
2019-01-18T12:39:57.798Z,1.80
2019-01-18T12:42:27.598Z,1.80
2019-01-18T12:44:58.446Z,1.80
2019-01-18T12:47:28.882Z,1.80
2019-01-18T12:49:59.634Z,1.70
2019-01-18T12:52:29.369Z,1.70
2019-01-18T12:55:00.191Z,1.70
2019-01-18T12:57:31.046Z,1.60
2019-01-18T13:00:01.884Z,1.60
2019-01-18T13:02:35.316Z,1.60
2019-01-18T13:05:04.007Z,1.50
2019-01-18T13:07:34.922Z,1.50
2019-01-18T13:10:11.676Z,1.50
2019-01-18T13:12:37.317Z,1.50
2019-01-18T13:15:28.325Z,1.40
2019-01-18T13:17:59.079Z,1.40
2019-01-18T13:20:31.113Z,1.30
2019-01-18T13:23:01.889Z,1.30
2019-01-18T13:25:31.678Z,1.20
2019-01-18T13:28:05.180Z,0.90
2019-01-18T13:30:35.954Z,0.90
2019-01-18T13:33:06.723Z,0.90
2019-01-18T13:35:36.449Z,0.90
2019-01-18T13:38:08.793Z,0.90
2019-01-18T13:40:39.646Z,0.80
2019-01-18T13:43:10.446Z,0.70
2019-01-18T13:45:41.238Z,0.90
2019-01-18T13:48:12.075Z,0.90
2019-01-18T13:50:41.793Z,0.90
2019-01-18T13:53:29.362Z,0.90
2019-01-18T13:56:00.125Z,0.90
2019-01-18T13:58:30.958Z,0.90
2019-01-18T14:01:00.685Z,0.90
2019-01-18T14:03:31.551Z,0.90
2019-01-18T14:06:01.246Z,0.90
2019-01-18T14:08:32.002Z,0.80
2019-01-18T14:11:02.994Z,0.80
2019-01-18T14:13:37.415Z,0.80
2019-01-18T14:16:06.214Z,0.70
2019-01-18T14:18:35.886Z,0.70
2019-01-18T14:21:07.313Z,0.80
2019-01-18T14:23:38.082Z,0.80
2019-01-18T14:26:08.924Z,0.80
2019-01-18T14:28:39.802Z,0.80
2019-01-18T14:31:10.560Z,0.80
2019-01-18T14:33:41.396Z,0.80
2019-01-18T14:36:14.664Z,0.80
2019-01-18T14:38:44.606Z,0.80
2019-01-18T14:41:15.827Z,0.70
2019-01-18T14:43:46.726Z,0.70
2019-01-18T14:46:24.014Z,0.70
2019-01-18T14:48:54.764Z,0.60
2019-01-18T14:51:24.963Z,0.60
2019-01-18T14:53:56.458Z,0.60
2019-01-18T14:56:27.326Z,0.60
2019-01-18T14:58:58.127Z,0.60
2019-01-18T15:01:28.927Z,0.60
2019-01-18T15:03:59.807Z,0.50
2019-01-18T15:06:30.634Z,0.00
2019-01-18T15:09:01.438Z,-0.10
2019-01-18T15:11:32.765Z,0.00
2019-01-18T15:14:03.518Z,0.20
2019-01-18T15:16:34.284Z,0.10
2019-01-18T15:19:05.125Z,0.10
2019-01-18T15:21:35.887Z,0.10
2019-01-18T15:24:06.717Z,0.00
2019-01-18T15:26:37.882Z,0.10
2019-01-18T15:29:08.602Z,0.20
2019-01-18T15:31:46.517Z,0.20
2019-01-18T15:34:13.407Z,0.10
2019-01-18T15:36:44.878Z,0.10
2019-01-18T15:39:16.039Z,0.10
2019-01-18T15:41:46.841Z,0.00
2019-01-18T15:44:17.715Z,0.00
2019-01-18T15:46:49.001Z,0.00
2019-01-18T15:49:19.803Z,-0.10
2019-01-18T15:51:50.690Z,-0.10
2019-01-18T15:54:20.482Z,-0.10
2019-01-18T15:56:51.323Z,-0.10
2019-01-18T15:59:22.188Z,-0.10
2019-01-18T16:01:51.962Z,0.00
2019-01-18T16:04:21.686Z,-0.10
2019-01-18T16:06:51.447Z,-0.20
2019-01-18T16:09:22.323Z,-0.30
2019-01-18T16:11:53.082Z,-0.20
2019-01-18T16:14:24.080Z,-0.30
2019-01-18T16:16:54.835Z,-0.30
2019-01-18T16:19:25.643Z,-0.40
2019-01-18T16:21:56.357Z,-0.40
2019-01-18T16:24:27.147Z,-0.40
2019-01-18T16:26:56.953Z,-0.40
2019-01-18T16:29:27.722Z,-0.40
2019-01-18T16:31:57.566Z,-0.40
2019-01-18T16:34:28.399Z,-0.40
2019-01-18T16:36:59.199Z,-0.30
2019-01-18T16:39:32.436Z,-0.40
2019-01-18T16:42:04.876Z,-0.50
2019-01-18T16:44:35.641Z,-0.50
2019-01-18T16:47:08.595Z,-0.50
2019-01-18T16:49:39.367Z,-0.50
2019-01-18T16:52:10.162Z,-0.50
2019-01-18T16:54:40.995Z,-0.60
2019-01-18T16:57:11.715Z,-0.60
2019-01-18T16:59:42.555Z,-0.60
2019-01-18T17:02:13.400Z,-0.70
2019-01-18T17:04:44.275Z,-0.70
2019-01-18T17:07:17.714Z,-0.80
2019-01-18T17:09:48.489Z,-0.80
2019-01-18T17:12:19.239Z,-0.90
2019-01-18T17:14:50.082Z,-0.80
2019-01-18T17:17:20.926Z,-0.80
2019-01-18T17:19:50.681Z,-0.90
2019-01-18T17:22:22.203Z,-0.90
2019-01-18T17:24:51.396Z,-0.90
2019-01-18T17:27:32.345Z,-0.90
2019-01-18T17:30:04.754Z,-1.00
2019-01-18T17:32:35.636Z,-0.90
2019-01-18T17:35:08.039Z,-0.90
2019-01-18T17:37:37.767Z,-1.00
2019-01-18T17:40:14.967Z,-1.20
2019-01-18T17:42:57.910Z,-1.20
2019-01-18T17:46:00.436Z,-1.10
2019-01-18T17:48:49.365Z,-1.20
2019-01-18T17:51:57.892Z,-1.20
2019-01-18T17:54:37.474Z,-1.30
2019-01-18T17:57:28.399Z,-1.20
2019-01-18T18:00:26.526Z,-1.20
2019-01-18T18:03:09.403Z,-1.30
2019-01-18T18:06:01.358Z,-1.30
2019-01-18T18:08:51.516Z,-1.30
2019-01-18T18:11:37.399Z,-1.30
2019-01-18T18:14:22.008Z,-1.30
2019-01-18T18:17:04.923Z,-1.40
2019-01-18T18:19:55.452Z,-1.40
2019-01-18T18:22:32.639Z,-1.40
2019-01-18T18:25:27.362Z,-1.50
2019-01-18T18:28:07.288Z,-1.50
2019-01-18T18:30:44.156Z,-1.50
2019-01-18T18:33:39.678Z,-1.50
2019-01-18T18:36:16.609Z,-1.40
2019-01-18T18:39:06.121Z,-1.40
2019-01-18T18:41:51.838Z,-1.40
2019-01-18T18:44:55.970Z,-1.40
2019-01-18T18:47:44.279Z,-1.40
2019-01-18T18:50:49.097Z,-1.40
2019-01-18T18:53:25.526Z,-1.40
2019-01-18T18:56:05.047Z,-1.40
2019-01-18T18:59:07.960Z,-1.50
2019-01-18T19:01:58.095Z,-1.50
2019-01-18T19:04:37.719Z,-1.50
2019-01-18T19:07:11.754Z,-1.50
2019-01-18T19:09:51.250Z,-1.50
2019-01-18T19:13:01.537Z,-1.60
2019-01-18T19:15:37.237Z,-1.60
2019-01-18T19:18:41.356Z,-1.60
2019-01-18T19:21:24.161Z,-1.70
2019-01-18T19:24:03.980Z,-1.70
2019-01-18T19:26:40.882Z,-1.70
2019-01-18T19:29:31.163Z,-1.60
2019-01-18T19:32:05.160Z,-1.60
2019-01-18T19:34:45.238Z,-1.70
2019-01-18T19:37:34.604Z,-1.70
2019-01-18T19:40:20.808Z,-1.70
2019-01-18T19:43:16.362Z,-1.70
2019-01-18T19:45:56.519Z,-1.70
2019-01-18T19:48:47.000Z,-1.70
2019-01-18T19:51:30.116Z,-1.70
2019-01-18T19:54:06.795Z,-1.80
2019-01-18T19:56:45.558Z,-1.80
2019-01-18T19:59:42.562Z,-1.80
2019-01-18T20:02:21.077Z,-1.80
2019-01-18T20:04:57.878Z,-1.80
2019-01-18T20:07:54.400Z,-1.90
2019-01-18T20:10:46.206Z,-1.90
2019-01-18T20:13:50.038Z,-1.90
2019-01-18T20:16:32.435Z,-1.90
2019-01-18T20:19:11.041Z,-1.90
2019-01-18T20:22:55.159Z,-1.80
2019-01-18T20:25:31.525Z,-1.90
2019-01-18T20:28:13.074Z,-1.80
2019-01-18T20:31:04.008Z,-1.90
2019-01-18T20:33:45.720Z,-1.80
2019-01-18T20:36:38.834Z,-1.90
2019-01-18T20:39:38.439Z,-1.90
2019-01-18T20:42:14.930Z,-1.90
2019-01-18T20:45:00.915Z,-2.00
2019-01-18T20:47:49.730Z,-1.90
2019-01-18T20:50:35.359Z,-1.90
2019-01-18T20:53:43.335Z,-2.00
2019-01-18T20:56:35.484Z,-2.10
2019-01-18T20:59:24.279Z,-2.00
2019-01-18T21:02:08.998Z,-2.10
2019-01-18T21:04:53.281Z,-2.10
2019-01-18T21:07:33.085Z,-2.10
2019-01-18T21:10:15.082Z,-2.10
2019-01-18T21:12:54.743Z,-2.10
2019-01-18T21:15:37.531Z,-2.10
2019-01-18T21:18:37.035Z,-2.20
2019-01-18T21:21:25.887Z,-2.20
2019-01-18T21:24:14.719Z,-2.20
2019-01-18T21:27:10.682Z,-2.30
2019-01-18T21:29:44.665Z,-2.30
2019-01-18T21:32:27.314Z,-2.30
2019-01-18T21:35:03.806Z,-2.30
2019-01-18T21:37:51.406Z,-2.30
2019-01-18T21:40:29.653Z,-2.30
2019-01-18T21:43:15.543Z,-2.30
2019-01-18T21:45:55.227Z,-2.30
2019-01-18T21:48:36.717Z,-2.30
2019-01-18T21:51:22.402Z,-2.30
2019-01-18T21:54:07.778Z,-2.30
2019-01-18T21:56:47.640Z,-2.30
2019-01-18T21:59:30.035Z,-2.40
2019-01-18T22:02:29.916Z,-2.30
2019-01-18T22:05:23.603Z,-2.40
2019-01-18T22:08:31.954Z,-2.40
2019-01-18T22:11:08.481Z,-2.50
2019-01-18T22:13:48.075Z,-2.50
2019-01-18T22:16:22.050Z,-2.50
2019-01-18T22:19:21.085Z,-2.50
2019-01-18T22:22:20.441Z,-2.60
2019-01-18T22:25:27.154Z,-2.60
2019-01-18T22:28:25.762Z,-2.60
2019-01-18T22:31:05.175Z,-2.60
2019-01-18T22:33:44.842Z,-2.60
2019-01-18T22:36:30.553Z,-2.60
2019-01-18T22:39:21.038Z,-2.70
2019-01-18T22:42:09.875Z,-2.70
2019-01-18T22:44:51.438Z,-2.70
2019-01-18T22:47:31.033Z,-2.60
2019-01-18T22:50:06.446Z,-2.60
2019-01-18T22:52:43.903Z,-2.70
2019-01-18T22:55:23.474Z,-2.70
2019-01-18T22:58:06.204Z,-2.80
2019-01-18T23:00:59.323Z,-2.80
2019-01-18T23:03:33.242Z,-2.80
2019-01-18T23:06:29.394Z,-2.80
2019-01-18T23:09:30.638Z,-2.90
2019-01-18T23:12:20.913Z,-2.90
2019-01-18T23:15:27.358Z,-2.90
2019-01-18T23:18:16.115Z,-2.90
2019-01-18T23:21:06.433Z,-3.00
2019-01-18T23:24:01.443Z,-3.00
2019-01-18T23:26:52.929Z,-3.10
2019-01-18T23:29:35.513Z,-3.20
2019-01-18T23:32:29.958Z,-3.10
2019-01-18T23:35:12.569Z,-3.20
2019-01-18T23:38:08.244Z,-3.10
2019-01-18T23:41:00.443Z,-3.30
2019-01-18T23:43:37.205Z,-3.30
2019-01-18T23:46:25.603Z,-3.40
2019-01-18T23:49:04.239Z,-3.30
2019-01-18T23:51:52.995Z,-3.20
2019-01-18T23:54:45.275Z,-3.20
2019-01-18T23:57:25.074Z,-3.20
